sensor_id;sensor_type;location;lat;lon;timestamp;P1;durP1;ratioP1;P2;durP2;ratioP2
14903;SDS011;7543;53.148;8.234;2023-04-24T00:02:15;3.40;;;2.50;;
14903;SDS011;7543;53.148;8.234;2023-04-24T00:04:44;5.90;;;2.50;;
14903;SDS011;7543;53.148;8.234;2023-04-24T00:07:13;4.07;;;2.17;;
14903;SDS011;7543;53.148;8.234;2023-04-24T00:09:43;3.50;;;2.50;;
14903;SDS011;7543;53.148;8.234;2023-04-24T00:12:11;2.87;;;2.00;;
14903;SDS011;7543;53.148;8.234;2023-04-24T00:14:40;2.00;;;1.70;;
14903;SDS011;7543;53.148;8.234;2023-04-24T00:17:08;2.10;;;1.80;;
14903;SDS011;7543;53.148;8.234;2023-04-24T00:19:36;2.73;;;1.77;;
14903;SDS011;7543;53.148;8.234;2023-04-24T00:22:06;2.53;;;1.80;;
14903;SDS011;7543;53.148;8.234;2023-04-24T00:24:34;2.63;;;1.70;;
14903;SDS011;7543;53.148;8.234;2023-04-24T00:27:03;1.80;;;1.43;;
14903;SDS011;7543;53.148;8.234;2023-04-24T00:29:31;2.47;;;1.53;;
14903;SDS011;7543;53.148;8.234;2023-04-24T00:31:59;1.60;;;1.20;;
14903;SDS011;7543;53.148;8.234;2023-04-24T00:34:28;1.23;;;0.93;;
14903;SDS011;7543;53.148;8.234;2023-04-24T00:36:56;1.10;;;0.97;;
14903;SDS011;7543;53.148;8.234;2023-04-24T00:39:26;0.53;;;0.53;;
14903;SDS011;7543;53.148;8.234;2023-04-24T00:41:54;0.87;;;0.87;;
14903;SDS011;7543;53.148;8.234;2023-04-24T00:44:23;0.70;;;0.70;;
14903;SDS011;7543;53.148;8.234;2023-04-24T00:46:51;2.23;;;1.00;;
14903;SDS011;7543;53.148;8.234;2023-04-24T00:49:22;1.07;;;0.90;;
14903;SDS011;7543;53.148;8.234;2023-04-24T00:51:50;0.97;;;0.90;;
14903;SDS011;7543;53.148;8.234;2023-04-24T00:54:19;1.20;;;1.10;;
14903;SDS011;7543;53.148;8.234;2023-04-24T00:56:49;1.10;;;1.00;;
14903;SDS011;7543;53.148;8.234;2023-04-24T00:59:18;0.80;;;0.77;;
14903;SDS011;7543;53.148;8.234;2023-04-24T01:01:46;0.97;;;0.87;;
14903;SDS011;7543;53.148;8.234;2023-04-24T01:04:15;0.97;;;0.80;;
14903;SDS011;7543;53.148;8.234;2023-04-24T01:06:44;1.10;;;1.00;;
14903;SDS011;7543;53.148;8.234;2023-04-24T01:09:13;1.10;;;1.00;;
14903;SDS011;7543;53.148;8.234;2023-04-24T01:11:42;1.40;;;1.10;;
14903;SDS011;7543;53.148;8.234;2023-04-24T01:14:13;1.20;;;1.10;;
14903;SDS011;7543;53.148;8.234;2023-04-24T01:16:42;2.03;;;1.40;;
14903;SDS011;7543;53.148;8.234;2023-04-24T01:19:10;1.20;;;1.10;;
14903;SDS011;7543;53.148;8.234;2023-04-24T01:21:39;1.30;;;1.20;;
14903;SDS011;7543;53.148;8.234;2023-04-24T01:24:10;1.60;;;1.13;;
14903;SDS011;7543;53.148;8.234;2023-04-24T01:26:38;1.30;;;1.20;;
14903;SDS011;7543;53.148;8.234;2023-04-24T01:29:07;1.20;;;1.10;;
14903;SDS011;7543;53.148;8.234;2023-04-24T01:31:37;1.47;;;1.10;;
14903;SDS011;7543;53.148;8.234;2023-04-24T01:34:06;1.43;;;1.33;;
14903;SDS011;7543;53.148;8.234;2023-04-24T01:36:35;1.30;;;1.20;;
14903;SDS011;7543;53.148;8.234;2023-04-24T01:39:04;3.13;;;1.17;;
14903;SDS011;7543;53.148;8.234;2023-04-24T01:41:34;3.00;;;1.20;;
14903;SDS011;7543;53.148;8.234;2023-04-24T01:44:03;1.93;;;1.47;;
14903;SDS011;7543;53.148;8.234;2023-04-24T01:46:32;2.07;;;1.30;;
14903;SDS011;7543;53.148;8.234;2023-04-24T01:49:01;1.60;;;1.37;;
14903;SDS011;7543;53.148;8.234;2023-04-24T01:51:30;1.67;;;1.40;;
14903;SDS011;7543;53.148;8.234;2023-04-24T01:53:58;1.50;;;1.40;;
14903;SDS011;7543;53.148;8.234;2023-04-24T01:56:26;1.50;;;1.40;;
14903;SDS011;7543;53.148;8.234;2023-04-24T01:58:58;1.90;;;1.50;;
14903;SDS011;7543;53.148;8.234;2023-04-24T02:01:31;2.27;;;1.90;;
14903;SDS011;7543;53.148;8.234;2023-04-24T02:04:01;2.00;;;1.80;;
14903;SDS011;7543;53.148;8.234;2023-04-24T02:06:30;3.33;;;1.60;;
14903;SDS011;7543;53.148;8.234;2023-04-24T02:09:01;2.10;;;1.90;;
14903;SDS011;7543;53.148;8.234;2023-04-24T02:11:30;2.07;;;1.87;;
14903;SDS011;7543;53.148;8.234;2023-04-24T02:14:00;1.97;;;1.77;;
14903;SDS011;7543;53.148;8.234;2023-04-24T02:16:28;2.00;;;1.80;;
14903;SDS011;7543;53.148;8.234;2023-04-24T02:18:58;2.07;;;1.87;;
14903;SDS011;7543;53.148;8.234;2023-04-24T02:21:27;1.90;;;1.70;;
14903;SDS011;7543;53.148;8.234;2023-04-24T02:23:55;2.50;;;2.07;;
14903;SDS011;7543;53.148;8.234;2023-04-24T02:26:23;2.10;;;1.87;;
14903;SDS011;7543;53.148;8.234;2023-04-24T02:28:52;5.90;;;1.90;;
14903;SDS011;7543;53.148;8.234;2023-04-24T02:31:22;2.50;;;1.90;;
14903;SDS011;7543;53.148;8.234;2023-04-24T02:33:51;2.43;;;1.87;;
14903;SDS011;7543;53.148;8.234;2023-04-24T02:36:19;1.70;;;1.57;;
14903;SDS011;7543;53.148;8.234;2023-04-24T02:38:49;2.53;;;2.20;;
14903;SDS011;7543;53.148;8.234;2023-04-24T02:41:18;2.30;;;1.90;;
14903;SDS011;7543;53.148;8.234;2023-04-24T02:43:46;2.47;;;2.10;;
14903;SDS011;7543;53.148;8.234;2023-04-24T02:46:14;3.60;;;2.23;;
14903;SDS011;7543;53.148;8.234;2023-04-24T02:48:44;2.80;;;2.27;;
14903;SDS011;7543;53.148;8.234;2023-04-24T02:51:12;2.37;;;2.10;;
14903;SDS011;7543;53.148;8.234;2023-04-24T02:53:41;1.93;;;1.70;;
14903;SDS011;7543;53.148;8.234;2023-04-24T02:56:09;2.70;;;2.07;;
14903;SDS011;7543;53.148;8.234;2023-04-24T02:58:39;2.37;;;2.10;;
14903;SDS011;7543;53.148;8.234;2023-04-24T03:01:07;3.27;;;2.30;;
14903;SDS011;7543;53.148;8.234;2023-04-24T03:03:36;2.50;;;2.30;;
14903;SDS011;7543;53.148;8.234;2023-04-24T03:06:06;2.90;;;2.23;;
14903;SDS011;7543;53.148;8.234;2023-04-24T03:08:35;3.47;;;2.50;;
14903;SDS011;7543;53.148;8.234;2023-04-24T03:11:03;2.70;;;2.30;;
14903;SDS011;7543;53.148;8.234;2023-04-24T03:13:32;2.93;;;2.47;;
14903;SDS011;7543;53.148;8.234;2023-04-24T03:16:00;2.70;;;2.23;;
14903;SDS011;7543;53.148;8.234;2023-04-24T03:18:28;3.27;;;2.47;;
14903;SDS011;7543;53.148;8.234;2023-04-24T03:20:57;2.23;;;2.00;;
14903;SDS011;7543;53.148;8.234;2023-04-24T03:23:27;4.53;;;2.30;;
14903;SDS011;7543;53.148;8.234;2023-04-24T03:25:56;2.60;;;2.10;;
14903;SDS011;7543;53.148;8.234;2023-04-24T03:28:25;3.37;;;2.63;;
14903;SDS011;7543;53.148;8.234;2023-04-24T03:30:59;3.70;;;2.40;;
14903;SDS011;7543;53.148;8.234;2023-04-24T03:33:32;2.83;;;2.40;;
14903;SDS011;7543;53.148;8.234;2023-04-24T03:36:02;3.73;;;2.40;;
14903;SDS011;7543;53.148;8.234;2023-04-24T03:38:42;3.57;;;2.57;;
14903;SDS011;7543;53.148;8.234;2023-04-24T03:41:32;3.83;;;2.50;;
14903;SDS011;7543;53.148;8.234;2023-04-24T03:44:10;3.37;;;2.50;;
14903;SDS011;7543;53.148;8.234;2023-04-24T03:46:38;2.63;;;2.30;;
14903;SDS011;7543;53.148;8.234;2023-04-24T03:49:07;3.90;;;2.70;;
14903;SDS011;7543;53.148;8.234;2023-04-24T03:51:39;2.90;;;2.33;;
14903;SDS011;7543;53.148;8.234;2023-04-24T03:54:29;8.50;;;2.43;;
14903;SDS011;7543;53.148;8.234;2023-04-24T03:56:57;3.40;;;2.30;;
14903;SDS011;7543;53.148;8.234;2023-04-24T03:59:28;4.13;;;2.30;;
14903;SDS011;7543;53.148;8.234;2023-04-24T04:02:25;2.87;;;2.30;;
14903;SDS011;7543;53.148;8.234;2023-04-24T04:04:54;2.83;;;2.37;;
14903;SDS011;7543;53.148;8.234;2023-04-24T04:07:22;3.27;;;2.20;;
14903;SDS011;7543;53.148;8.234;2023-04-24T04:09:52;2.67;;;2.17;;
14903;SDS011;7543;53.148;8.234;2023-04-24T04:12:20;2.23;;;2.00;;
14903;SDS011;7543;53.148;8.234;2023-04-24T04:14:49;2.60;;;2.03;;
14903;SDS011;7543;53.148;8.234;2023-04-24T04:17:17;2.77;;;2.10;;
14903;SDS011;7543;53.148;8.234;2023-04-24T04:19:45;3.40;;;2.03;;
14903;SDS011;7543;53.148;8.234;2023-04-24T04:22:14;2.33;;;2.07;;
14903;SDS011;7543;53.148;8.234;2023-04-24T04:24:46;2.43;;;2.20;;
14903;SDS011;7543;53.148;8.234;2023-04-24T04:27:17;2.47;;;2.13;;
14903;SDS011;7543;53.148;8.234;2023-04-24T04:29:51;2.73;;;2.30;;
14903;SDS011;7543;53.148;8.234;2023-04-24T04:32:20;3.53;;;2.67;;
14903;SDS011;7543;53.148;8.234;2023-04-24T04:34:50;3.40;;;2.27;;
14903;SDS011;7543;53.148;8.234;2023-04-24T04:37:20;4.00;;;3.07;;
14903;SDS011;7543;53.148;8.234;2023-04-24T04:39:59;5.90;;;3.20;;
14903;SDS011;7543;53.148;8.234;2023-04-24T04:42:35;3.80;;;2.97;;
14903;SDS011;7543;53.148;8.234;2023-04-24T04:45:07;3.30;;;2.53;;
14903;SDS011;7543;53.148;8.234;2023-04-24T04:47:50;6.30;;;3.13;;
14903;SDS011;7543;53.148;8.234;2023-04-24T04:50:19;4.57;;;3.10;;
14903;SDS011;7543;53.148;8.234;2023-04-24T04:52:49;4.57;;;3.00;;
14903;SDS011;7543;53.148;8.234;2023-04-24T04:55:25;4.30;;;2.77;;
14903;SDS011;7543;53.148;8.234;2023-04-24T04:58:16;4.13;;;3.03;;
14903;SDS011;7543;53.148;8.234;2023-04-24T05:00:47;3.57;;;3.17;;
14903;SDS011;7543;53.148;8.234;2023-04-24T05:03:23;4.20;;;3.43;;
14903;SDS011;7543;53.148;8.234;2023-04-24T05:05:58;4.67;;;3.20;;
14903;SDS011;7543;53.148;8.234;2023-04-24T05:08:27;3.90;;;3.50;;
14903;SDS011;7543;53.148;8.234;2023-04-24T05:10:56;4.47;;;3.30;;
14903;SDS011;7543;53.148;8.234;2023-04-24T05:13:28;4.03;;;3.13;;
14903;SDS011;7543;53.148;8.234;2023-04-24T05:15:57;4.20;;;3.23;;
14903;SDS011;7543;53.148;8.234;2023-04-24T05:18:26;4.63;;;3.60;;
14903;SDS011;7543;53.148;8.234;2023-04-24T05:20:55;4.93;;;3.60;;
14903;SDS011;7543;53.148;8.234;2023-04-24T05:23:24;4.10;;;3.10;;
14903;SDS011;7543;53.148;8.234;2023-04-24T05:25:55;5.17;;;3.23;;
14903;SDS011;7543;53.148;8.234;2023-04-24T05:28:23;5.83;;;3.27;;
14903;SDS011;7543;53.148;8.234;2023-04-24T05:31:05;5.17;;;3.50;;
14903;SDS011;7543;53.148;8.234;2023-04-24T05:33:34;6.50;;;3.40;;
14903;SDS011;7543;53.148;8.234;2023-04-24T05:36:03;5.47;;;3.30;;
14903;SDS011;7543;53.148;8.234;2023-04-24T05:38:33;5.13;;;3.80;;
14903;SDS011;7543;53.148;8.234;2023-04-24T05:41:01;5.27;;;3.60;;
14903;SDS011;7543;53.148;8.234;2023-04-24T05:43:30;4.83;;;3.63;;
14903;SDS011;7543;53.148;8.234;2023-04-24T05:45:58;5.80;;;3.80;;
14903;SDS011;7543;53.148;8.234;2023-04-24T05:48:28;6.37;;;4.10;;
14903;SDS011;7543;53.148;8.234;2023-04-24T05:50:57;7.87;;;4.10;;
14903;SDS011;7543;53.148;8.234;2023-04-24T05:53:25;4.37;;;3.63;;
14903;SDS011;7543;53.148;8.234;2023-04-24T05:55:54;5.80;;;3.70;;
14903;SDS011;7543;53.148;8.234;2023-04-24T05:58:23;5.27;;;3.70;;
14903;SDS011;7543;53.148;8.234;2023-04-24T06:00:51;6.20;;;3.87;;
14903;SDS011;7543;53.148;8.234;2023-04-24T06:03:20;5.63;;;4.03;;
14903;SDS011;7543;53.148;8.234;2023-04-24T06:05:50;5.03;;;4.10;;
14903;SDS011;7543;53.148;8.234;2023-04-24T06:08:19;7.17;;;3.63;;
14903;SDS011;7543;53.148;8.234;2023-04-24T06:10:49;6.00;;;4.10;;
14903;SDS011;7543;53.148;8.234;2023-04-24T06:13:23;4.93;;;3.57;;
14903;SDS011;7543;53.148;8.234;2023-04-24T06:16:11;6.03;;;3.90;;
14903;SDS011;7543;53.148;8.234;2023-04-24T06:18:43;5.33;;;3.63;;
14903;SDS011;7543;53.148;8.234;2023-04-24T06:21:16;7.33;;;4.33;;
14903;SDS011;7543;53.148;8.234;2023-04-24T06:23:45;4.57;;;3.40;;
14903;SDS011;7543;53.148;8.234;2023-04-24T06:26:15;4.63;;;3.20;;
14903;SDS011;7543;53.148;8.234;2023-04-24T06:28:44;6.87;;;4.20;;
14903;SDS011;7543;53.148;8.234;2023-04-24T06:31:12;6.70;;;3.90;;
14903;SDS011;7543;53.148;8.234;2023-04-24T06:33:41;7.63;;;3.93;;
14903;SDS011;7543;53.148;8.234;2023-04-24T06:36:10;5.20;;;3.87;;
14903;SDS011;7543;53.148;8.234;2023-04-24T06:38:40;6.30;;;3.97;;
14903;SDS011;7543;53.148;8.234;2023-04-24T06:41:09;5.63;;;3.80;;
14903;SDS011;7543;53.148;8.234;2023-04-24T06:43:38;4.83;;;3.50;;
14903;SDS011;7543;53.148;8.234;2023-04-24T06:46:07;6.30;;;4.57;;
14903;SDS011;7543;53.148;8.234;2023-04-24T06:48:35;5.57;;;4.10;;
14903;SDS011;7543;53.148;8.234;2023-04-24T06:51:03;6.43;;;3.90;;
14903;SDS011;7543;53.148;8.234;2023-04-24T06:53:32;6.17;;;3.93;;
14903;SDS011;7543;53.148;8.234;2023-04-24T06:56:01;4.87;;;3.60;;
14903;SDS011;7543;53.148;8.234;2023-04-24T06:58:30;4.83;;;3.53;;
14903;SDS011;7543;53.148;8.234;2023-04-24T07:00:59;5.17;;;3.90;;
14903;SDS011;7543;53.148;8.234;2023-04-24T07:03:27;6.07;;;4.27;;
14903;SDS011;7543;53.148;8.234;2023-04-24T07:05:55;6.60;;;4.30;;
14903;SDS011;7543;53.148;8.234;2023-04-24T07:08:24;5.63;;;4.10;;
14903;SDS011;7543;53.148;8.234;2023-04-24T07:10:52;5.63;;;4.00;;
14903;SDS011;7543;53.148;8.234;2023-04-24T07:13:22;7.43;;;4.37;;
14903;SDS011;7543;53.148;8.234;2023-04-24T07:15:51;6.43;;;4.50;;
14903;SDS011;7543;53.148;8.234;2023-04-24T07:18:20;5.90;;;4.57;;
14903;SDS011;7543;53.148;8.234;2023-04-24T07:20:49;8.40;;;4.60;;
14903;SDS011;7543;53.148;8.234;2023-04-24T07:23:19;5.47;;;4.27;;
14903;SDS011;7543;53.148;8.234;2023-04-24T07:25:48;6.33;;;3.70;;
14903;SDS011;7543;53.148;8.234;2023-04-24T07:28:16;7.33;;;4.47;;
14903;SDS011;7543;53.148;8.234;2023-04-24T07:30:46;7.30;;;4.80;;
14903;SDS011;7543;53.148;8.234;2023-04-24T07:33:17;7.47;;;4.70;;
14903;SDS011;7543;53.148;8.234;2023-04-24T07:35:45;5.97;;;4.53;;
14903;SDS011;7543;53.148;8.234;2023-04-24T07:38:14;5.73;;;4.20;;
14903;SDS011;7543;53.148;8.234;2023-04-24T07:40:42;6.27;;;4.77;;
14903;SDS011;7543;53.148;8.234;2023-04-24T07:43:11;6.27;;;4.10;;
14903;SDS011;7543;53.148;8.234;2023-04-24T07:45:39;8.77;;;5.07;;
14903;SDS011;7543;53.148;8.234;2023-04-24T07:48:09;6.00;;;4.37;;
14903;SDS011;7543;53.148;8.234;2023-04-24T07:50:37;6.73;;;4.40;;
14903;SDS011;7543;53.148;8.234;2023-04-24T07:53:05;7.47;;;4.70;;
14903;SDS011;7543;53.148;8.234;2023-04-24T07:55:34;6.27;;;4.83;;
14903;SDS011;7543;53.148;8.234;2023-04-24T07:58:02;7.03;;;4.73;;
14903;SDS011;7543;53.148;8.234;2023-04-24T08:00:31;6.43;;;4.47;;
14903;SDS011;7543;53.148;8.234;2023-04-24T08:02:59;6.97;;;4.70;;
14903;SDS011;7543;53.148;8.234;2023-04-24T08:05:29;6.00;;;3.67;;
14903;SDS011;7543;53.148;8.234;2023-04-24T08:07:58;8.50;;;5.07;;
14903;SDS011;7543;53.148;8.234;2023-04-24T08:10:26;6.23;;;4.03;;
14903;SDS011;7543;53.148;8.234;2023-04-24T08:12:54;6.50;;;4.03;;
14903;SDS011;7543;53.148;8.234;2023-04-24T08:15:23;7.03;;;4.07;;
14903;SDS011;7543;53.148;8.234;2023-04-24T08:17:54;5.50;;;4.30;;
14903;SDS011;7543;53.148;8.234;2023-04-24T08:20:23;6.90;;;4.43;;
14903;SDS011;7543;53.148;8.234;2023-04-24T08:22:52;5.80;;;3.97;;
14903;SDS011;7543;53.148;8.234;2023-04-24T08:25:21;6.90;;;4.10;;
14903;SDS011;7543;53.148;8.234;2023-04-24T08:27:51;6.73;;;4.17;;
14903;SDS011;7543;53.148;8.234;2023-04-24T08:30:19;5.87;;;3.93;;
14903;SDS011;7543;53.148;8.234;2023-04-24T08:32:48;5.70;;;3.93;;
14903;SDS011;7543;53.148;8.234;2023-04-24T08:35:16;6.23;;;4.03;;
14903;SDS011;7543;53.148;8.234;2023-04-24T08:37:45;5.80;;;4.13;;
14903;SDS011;7543;53.148;8.234;2023-04-24T08:40:15;8.50;;;3.93;;
14903;SDS011;7543;53.148;8.234;2023-04-24T08:42:44;8.83;;;3.97;;
14903;SDS011;7543;53.148;8.234;2023-04-24T08:45:13;5.57;;;3.67;;
14903;SDS011;7543;53.148;8.234;2023-04-24T08:47:41;4.43;;;3.30;;
14903;SDS011;7543;53.148;8.234;2023-04-24T08:50:10;4.90;;;3.00;;
14903;SDS011;7543;53.148;8.234;2023-04-24T08:52:39;5.50;;;3.37;;
14903;SDS011;7543;53.148;8.234;2023-04-24T08:55:08;5.30;;;3.30;;
14903;SDS011;7543;53.148;8.234;2023-04-24T08:57:38;5.03;;;3.07;;
14903;SDS011;7543;53.148;8.234;2023-04-24T09:00:07;4.67;;;3.20;;
14903;SDS011;7543;53.148;8.234;2023-04-24T09:02:36;5.10;;;3.20;;
14903;SDS011;7543;53.148;8.234;2023-04-24T09:05:05;5.83;;;3.60;;
14903;SDS011;7543;53.148;8.234;2023-04-24T09:07:35;4.70;;;3.10;;
14903;SDS011;7543;53.148;8.234;2023-04-24T09:10:07;4.47;;;3.33;;
14903;SDS011;7543;53.148;8.234;2023-04-24T09:12:35;10.43;;;3.03;;
14903;SDS011;7543;53.148;8.234;2023-04-24T09:15:06;4.03;;;3.13;;
14903;SDS011;7543;53.148;8.234;2023-04-24T09:17:35;5.53;;;3.40;;
14903;SDS011;7543;53.148;8.234;2023-04-24T09:20:04;5.27;;;3.47;;
14903;SDS011;7543;53.148;8.234;2023-04-24T09:22:33;3.83;;;2.70;;
14903;SDS011;7543;53.148;8.234;2023-04-24T09:25:02;4.63;;;3.30;;
14903;SDS011;7543;53.148;8.234;2023-04-24T09:27:32;4.70;;;3.20;;
14903;SDS011;7543;53.148;8.234;2023-04-24T09:30:02;3.77;;;2.77;;
14903;SDS011;7543;53.148;8.234;2023-04-24T09:32:31;4.10;;;3.20;;
14903;SDS011;7543;53.148;8.234;2023-04-24T09:35:06;4.33;;;3.27;;
14903;SDS011;7543;53.148;8.234;2023-04-24T09:37:36;5.03;;;3.27;;
14903;SDS011;7543;53.148;8.234;2023-04-24T09:40:09;4.27;;;3.03;;
14903;SDS011;7543;53.148;8.234;2023-04-24T09:42:44;4.40;;;3.53;;
14903;SDS011;7543;53.148;8.234;2023-04-24T09:45:18;4.30;;;3.37;;
14903;SDS011;7543;53.148;8.234;2023-04-24T09:47:59;5.13;;;3.50;;
14903;SDS011;7543;53.148;8.234;2023-04-24T09:50:47;4.83;;;3.50;;
14903;SDS011;7543;53.148;8.234;2023-04-24T09:53:24;6.53;;;3.57;;
14903;SDS011;7543;53.148;8.234;2023-04-24T09:56:07;6.07;;;3.53;;
14903;SDS011;7543;53.148;8.234;2023-04-24T09:58:47;5.23;;;3.77;;
14903;SDS011;7543;53.148;8.234;2023-04-24T10:01:31;4.10;;;3.30;;
14903;SDS011;7543;53.148;8.234;2023-04-24T10:04:18;3.80;;;3.27;;
14903;SDS011;7543;53.148;8.234;2023-04-24T10:06:58;4.90;;;3.90;;
14903;SDS011;7543;53.148;8.234;2023-04-24T10:09:36;4.43;;;3.17;;
14903;SDS011;7543;53.148;8.234;2023-04-24T10:12:12;4.53;;;3.10;;
14903;SDS011;7543;53.148;8.234;2023-04-24T10:15:01;3.27;;;2.87;;
14903;SDS011;7543;53.148;8.234;2023-04-24T10:17:40;4.60;;;2.80;;
14903;SDS011;7543;53.148;8.234;2023-04-24T10:20:15;6.70;;;3.00;;
14903;SDS011;7543;53.148;8.234;2023-04-24T10:22:53;5.70;;;2.93;;
14903;SDS011;7543;53.148;8.234;2023-04-24T10:25:26;3.23;;;2.47;;
14903;SDS011;7543;53.148;8.234;2023-04-24T10:28:04;3.43;;;2.20;;
14903;SDS011;7543;53.148;8.234;2023-04-24T10:30:47;3.50;;;2.10;;
14903;SDS011;7543;53.148;8.234;2023-04-24T10:33:21;3.03;;;1.90;;
14903;SDS011;7543;53.148;8.234;2023-04-24T10:35:54;2.63;;;2.20;;
14903;SDS011;7543;53.148;8.234;2023-04-24T10:38:26;2.53;;;1.80;;
14903;SDS011;7543;53.148;8.234;2023-04-24T10:41:06;2.83;;;1.90;;
14903;SDS011;7543;53.148;8.234;2023-04-24T10:43:35;2.70;;;1.80;;
14903;SDS011;7543;53.148;8.234;2023-04-24T10:46:04;2.40;;;1.70;;
14903;SDS011;7543;53.148;8.234;2023-04-24T10:48:35;1.97;;;1.57;;
14903;SDS011;7543;53.148;8.234;2023-04-24T10:51:05;2.77;;;1.63;;
14903;SDS011;7543;53.148;8.234;2023-04-24T10:53:34;2.57;;;1.60;;
14903;SDS011;7543;53.148;8.234;2023-04-24T10:56:03;1.83;;;1.40;;
14903;SDS011;7543;53.148;8.234;2023-04-24T10:58:36;1.93;;;1.60;;
14903;SDS011;7543;53.148;8.234;2023-04-24T11:01:06;2.33;;;1.80;;
14903;SDS011;7543;53.148;8.234;2023-04-24T11:03:36;1.90;;;1.37;;
14903;SDS011;7543;53.148;8.234;2023-04-24T11:06:08;1.63;;;1.37;;
14903;SDS011;7543;53.148;8.234;2023-04-24T11:08:37;1.80;;;1.50;;
14903;SDS011;7543;53.148;8.234;2023-04-24T11:11:10;1.33;;;1.23;;
14903;SDS011;7543;53.148;8.234;2023-04-24T11:16:34;2.40;;;1.67;;
14903;SDS011;7543;53.148;8.234;2023-04-24T11:19:07;2.53;;;1.80;;
14903;SDS011;7543;53.148;8.234;2023-04-24T11:21:40;2.23;;;1.60;;
14903;SDS011;7543;53.148;8.234;2023-04-24T11:24:31;5.10;;;1.47;;
14903;SDS011;7543;53.148;8.234;2023-04-24T11:27:06;1.83;;;1.50;;
14903;SDS011;7543;53.148;8.234;2023-04-24T11:29:38;2.37;;;1.50;;
14903;SDS011;7543;53.148;8.234;2023-04-24T11:32:24;2.00;;;1.40;;
14903;SDS011;7543;53.148;8.234;2023-04-24T11:34:56;1.43;;;1.27;;
14903;SDS011;7543;53.148;8.234;2023-04-24T11:37:26;2.10;;;1.57;;
14903;SDS011;7543;53.148;8.234;2023-04-24T11:39:57;1.70;;;1.20;;
14903;SDS011;7543;53.148;8.234;2023-04-24T11:42:26;1.83;;;1.53;;
14903;SDS011;7543;53.148;8.234;2023-04-24T11:44:55;1.87;;;1.37;;
14903;SDS011;7543;53.148;8.234;2023-04-24T11:47:27;2.17;;;1.50;;
14903;SDS011;7543;53.148;8.234;2023-04-24T11:49:58;1.93;;;1.40;;
14903;SDS011;7543;53.148;8.234;2023-04-24T11:52:27;1.40;;;1.20;;
14903;SDS011;7543;53.148;8.234;2023-04-24T11:54:55;1.87;;;1.30;;
14903;SDS011;7543;53.148;8.234;2023-04-24T11:57:24;1.90;;;1.40;;
14903;SDS011;7543;53.148;8.234;2023-04-24T11:59:55;3.10;;;1.20;;
14903;SDS011;7543;53.148;8.234;2023-04-24T12:02:24;2.43;;;1.63;;
14903;SDS011;7543;53.148;8.234;2023-04-24T12:04:53;3.77;;;2.10;;
14903;SDS011;7543;53.148;8.234;2023-04-24T12:07:23;4.93;;;2.63;;
14903;SDS011;7543;53.148;8.234;2023-04-24T12:09:55;4.37;;;3.23;;
14903;SDS011;7543;53.148;8.234;2023-04-24T12:12:25;7.67;;;3.70;;
14903;SDS011;7543;53.148;8.234;2023-04-24T12:14:55;5.77;;;3.73;;
14903;SDS011;7543;53.148;8.234;2023-04-24T12:17:25;5.90;;;4.20;;
14903;SDS011;7543;53.148;8.234;2023-04-24T12:19:57;7.10;;;4.67;;
14903;SDS011;7543;53.148;8.234;2023-04-24T12:22:27;10.00;;;5.73;;
14903;SDS011;7543;53.148;8.234;2023-04-24T12:24:56;10.70;;;6.10;;
14903;SDS011;7543;53.148;8.234;2023-04-24T12:27:29;8.83;;;5.60;;
14903;SDS011;7543;53.148;8.234;2023-04-24T12:29:59;9.47;;;5.57;;
14903;SDS011;7543;53.148;8.234;2023-04-24T12:32:29;8.70;;;4.77;;
14903;SDS011;7543;53.148;8.234;2023-04-24T12:34:58;8.73;;;4.97;;
14903;SDS011;7543;53.148;8.234;2023-04-24T12:37:32;9.23;;;4.87;;
14903;SDS011;7543;53.148;8.234;2023-04-24T12:40:03;8.23;;;4.70;;
14903;SDS011;7543;53.148;8.234;2023-04-24T12:42:34;10.27;;;4.47;;
14903;SDS011;7543;53.148;8.234;2023-04-24T12:45:03;12.17;;;5.10;;
14903;SDS011;7543;53.148;8.234;2023-04-24T12:47:33;5.83;;;3.80;;
14903;SDS011;7543;53.148;8.234;2023-04-24T12:50:03;7.63;;;4.07;;
14903;SDS011;7543;53.148;8.234;2023-04-24T12:52:34;7.17;;;4.23;;
14903;SDS011;7543;53.148;8.234;2023-04-24T12:55:02;7.27;;;4.00;;
14903;SDS011;7543;53.148;8.234;2023-04-24T12:57:32;5.30;;;3.37;;
14903;SDS011;7543;53.148;8.234;2023-04-24T13:00:00;6.27;;;3.47;;
14903;SDS011;7543;53.148;8.234;2023-04-24T13:02:29;4.00;;;2.97;;
14903;SDS011;7543;53.148;8.234;2023-04-24T13:04:58;5.30;;;3.43;;
14903;SDS011;7543;53.148;8.234;2023-04-24T13:07:27;6.10;;;3.63;;
14903;SDS011;7543;53.148;8.234;2023-04-24T13:16:10;6.97;;;2.73;;
14903;SDS011;7543;53.148;8.234;2023-04-24T13:18:38;4.47;;;2.80;;
14903;SDS011;7543;53.148;8.234;2023-04-24T13:21:07;4.20;;;2.70;;
14903;SDS011;7543;53.148;8.234;2023-04-24T13:23:35;3.93;;;2.53;;
14903;SDS011;7543;53.148;8.234;2023-04-24T13:26:04;4.13;;;2.57;;
14903;SDS011;7543;53.148;8.234;2023-04-24T13:28:32;5.00;;;2.50;;
14903;SDS011;7543;53.148;8.234;2023-04-24T13:31:00;5.83;;;2.47;;
14903;SDS011;7543;53.148;8.234;2023-04-24T13:33:30;6.07;;;2.30;;
14903;SDS011;7543;53.148;8.234;2023-04-24T13:35:58;4.17;;;2.20;;
14903;SDS011;7543;53.148;8.234;2023-04-24T13:38:27;6.00;;;2.37;;
14903;SDS011;7543;53.148;8.234;2023-04-24T13:40:55;4.23;;;2.00;;
14903;SDS011;7543;53.148;8.234;2023-04-24T13:43:23;5.07;;;2.40;;
14903;SDS011;7543;53.148;8.234;2023-04-24T13:45:52;4.50;;;2.20;;
14903;SDS011;7543;53.148;8.234;2023-04-24T13:48:20;3.80;;;2.27;;
14903;SDS011;7543;53.148;8.234;2023-04-24T13:50:50;5.13;;;2.57;;
14903;SDS011;7543;53.148;8.234;2023-04-24T13:53:18;7.77;;;2.30;;
14903;SDS011;7543;53.148;8.234;2023-04-24T13:55:46;4.77;;;2.20;;
14903;SDS011;7543;53.148;8.234;2023-04-24T13:58:15;5.63;;;2.20;;
14903;SDS011;7543;53.148;8.234;2023-04-24T14:00:43;5.53;;;2.60;;
14903;SDS011;7543;53.148;8.234;2023-04-24T14:03:11;3.53;;;2.10;;
14903;SDS011;7543;53.148;8.234;2023-04-24T14:05:40;3.53;;;2.00;;
14903;SDS011;7543;53.148;8.234;2023-04-24T14:08:09;4.87;;;2.23;;
14903;SDS011;7543;53.148;8.234;2023-04-24T14:10:38;4.43;;;2.30;;
14903;SDS011;7543;53.148;8.234;2023-04-24T14:13:06;3.40;;;1.97;;
14903;SDS011;7543;53.148;8.234;2023-04-24T14:15:35;4.83;;;2.17;;
14903;SDS011;7543;53.148;8.234;2023-04-24T14:18:03;4.60;;;2.10;;
14903;SDS011;7543;53.148;8.234;2023-04-24T14:20:32;6.83;;;2.13;;
14903;SDS011;7543;53.148;8.234;2023-04-24T14:23:00;4.43;;;2.13;;
14903;SDS011;7543;53.148;8.234;2023-04-24T14:25:30;4.07;;;2.30;;
14903;SDS011;7543;53.148;8.234;2023-04-24T14:27:59;3.60;;;2.23;;
14903;SDS011;7543;53.148;8.234;2023-04-24T14:30:27;3.60;;;1.60;;
14903;SDS011;7543;53.148;8.234;2023-04-24T14:32:55;4.67;;;1.67;;
14903;SDS011;7543;53.148;8.234;2023-04-24T14:35:24;2.93;;;1.60;;
14903;SDS011;7543;53.148;8.234;2023-04-24T14:37:52;6.43;;;1.73;;
14903;SDS011;7543;53.148;8.234;2023-04-24T14:40:21;1.53;;;1.33;;
14903;SDS011;7543;53.148;8.234;2023-04-24T14:42:51;2.50;;;1.40;;
14903;SDS011;7543;53.148;8.234;2023-04-24T14:45:20;4.30;;;1.40;;
14903;SDS011;7543;53.148;8.234;2023-04-24T14:47:48;4.00;;;1.43;;
14903;SDS011;7543;53.148;8.234;2023-04-24T14:50:16;5.63;;;1.20;;
14903;SDS011;7543;53.148;8.234;2023-04-24T14:52:45;6.70;;;1.70;;
14903;SDS011;7543;53.148;8.234;2023-04-24T14:55:14;3.07;;;1.30;;
14903;SDS011;7543;53.148;8.234;2023-04-24T14:57:43;2.27;;;1.20;;
14903;SDS011;7543;53.148;8.234;2023-04-24T15:00:13;2.03;;;1.33;;
14903;SDS011;7543;53.148;8.234;2023-04-24T15:02:43;2.33;;;1.40;;
14903;SDS011;7543;53.148;8.234;2023-04-24T15:05:11;5.90;;;2.07;;
14903;SDS011;7543;53.148;8.234;2023-04-24T15:07:40;1.97;;;1.30;;
14903;SDS011;7543;53.148;8.234;2023-04-24T15:10:09;1.80;;;1.40;;
14903;SDS011;7543;53.148;8.234;2023-04-24T15:12:44;2.10;;;1.40;;
14903;SDS011;7543;53.148;8.234;2023-04-24T15:15:22;1.40;;;1.30;;
14903;SDS011;7543;53.148;8.234;2023-04-24T15:17:51;3.43;;;1.30;;
14903;SDS011;7543;53.148;8.234;2023-04-24T15:20:19;5.00;;;1.80;;
14903;SDS011;7543;53.148;8.234;2023-04-24T15:22:47;6.40;;;1.70;;
14903;SDS011;7543;53.148;8.234;2023-04-24T15:25:16;3.77;;;1.60;;
14903;SDS011;7543;53.148;8.234;2023-04-24T15:27:44;10.60;;;1.63;;
14903;SDS011;7543;53.148;8.234;2023-04-24T15:30:13;3.13;;;1.80;;